Dunnegan, Missouri
Current Conditions -  °F | °C
As of 11:52 AM on Saturday 20 Dec 2014 (Local Time) from KSGF Reporting Station
Overcast Overcast  
Wind Chill: 37°   Ceiling: 1400
Heat Index: 41°   Visibility: 10mi
Dew Point: 36°   Wind: 6mph
Humidity: 82%   Direction: 230°SW
Pressure: 30.2"   Gusts: NA
Location:  37.71°N, 93.58°W
Report Text: KSGF 201752Z 23005KT 10SM OVC014 05/02 A3020 RMK AO2 SLP234 T00500022 10050 20028 58007
Loading
Personal Weather Stations






























Interactive Weather Map New forecast layout! Learn more

10-Day Weather Forecast

Advertisements
Track Severe Weather on mobile